createdAt,value
2017-12-13T00:00:21.192Z,4.14
2017-12-13T00:02:47.854Z,4.20
2017-12-13T00:05:14.541Z,4.30
2017-12-13T00:07:41.219Z,4.21
2017-12-13T00:10:07.887Z,4.00
2017-12-13T00:12:34.943Z,4.02
2017-12-13T00:15:02.395Z,4.06
2017-12-13T00:17:29.136Z,4.09
2017-12-13T00:19:55.798Z,3.95
2017-12-13T00:22:31.456Z,4.19
2017-12-13T00:24:59.028Z,4.07
2017-12-13T00:27:25.710Z,4.02
2017-12-13T00:29:52.364Z,4.01
2017-12-13T00:32:19.043Z,4.05
2017-12-13T00:34:46.445Z,4.04
2017-12-13T00:37:13.261Z,4.10
2017-12-13T00:39:40.658Z,3.88
2017-12-13T00:42:07.422Z,3.89
2017-12-13T00:44:34.078Z,3.89
2017-12-13T00:47:00.754Z,3.61
2017-12-13T00:49:27.543Z,3.60
2017-12-13T00:51:54.199Z,3.62
2017-12-13T00:54:21.057Z,3.70
2017-12-13T00:56:47.757Z,3.71
2017-12-13T00:59:14.429Z,3.57
2017-12-13T01:01:41.140Z,3.44
2017-12-13T01:04:07.820Z,3.47
2017-12-13T01:06:34.499Z,3.54
2017-12-13T01:09:01.172Z,3.60
2017-12-13T01:11:27.814Z,3.65
2017-12-13T01:13:54.476Z,3.49
2017-12-13T01:16:21.159Z,3.43
2017-12-13T01:18:48.555Z,3.28
2017-12-13T01:21:15.253Z,3.25
2017-12-13T01:23:42.694Z,3.28
2017-12-13T01:26:09.326Z,3.16
2017-12-13T01:28:35.997Z,3.05
2017-12-13T01:31:03.401Z,3.11
2017-12-13T01:33:30.045Z,3.06
2017-12-13T01:35:58.786Z,3.10
2017-12-13T01:38:25.465Z,3.04
2017-12-13T01:40:52.121Z,2.90
2017-12-13T01:43:18.841Z,2.97
2017-12-13T01:45:45.486Z,2.95
2017-12-13T01:48:12.169Z,2.93
2017-12-13T01:50:38.923Z,2.89
2017-12-13T01:53:06.317Z,2.91
2017-12-13T01:55:33.786Z,2.91
2017-12-13T01:58:00.496Z,2.97
2017-12-13T02:00:27.137Z,2.98
2017-12-13T02:02:53.812Z,2.81
2017-12-13T02:05:21.234Z,2.79
2017-12-13T02:07:47.910Z,2.73
2017-12-13T02:10:15.357Z,2.71
2017-12-13T02:12:42.793Z,2.55
2017-12-13T02:15:09.462Z,2.67
2017-12-13T02:17:36.898Z,2.68
2017-12-13T02:20:03.622Z,2.69
2017-12-13T02:22:30.363Z,2.66
2017-12-13T02:24:57.135Z,2.63
2017-12-13T02:27:23.772Z,2.73
2017-12-13T02:29:50.435Z,2.67
2017-12-13T02:32:17.095Z,2.60
2017-12-13T02:34:44.506Z,2.67
2017-12-13T02:37:11.159Z,2.71
2017-12-13T02:39:37.797Z,2.78
2017-12-13T02:42:04.461Z,2.86
2017-12-13T02:44:31.142Z,2.79
2017-12-13T02:46:57.821Z,2.73
2017-12-13T02:49:24.474Z,2.58
2017-12-13T02:51:51.137Z,2.51
2017-12-13T02:54:17.851Z,2.58
2017-12-13T02:56:44.589Z,2.63
2017-12-13T02:59:11.314Z,2.62
2017-12-13T03:01:38.017Z,2.70
2017-12-13T03:04:05.428Z,2.82
2017-12-13T03:06:32.140Z,2.70
2017-12-13T03:08:59.602Z,2.76
2017-12-13T03:11:26.265Z,2.72
2017-12-13T03:13:52.935Z,2.67
2017-12-13T03:16:19.618Z,2.82
2017-12-13T03:18:47.040Z,2.71
2017-12-13T03:21:13.701Z,2.78
2017-12-13T03:23:40.408Z,2.73
2017-12-13T03:26:07.035Z,2.74
2017-12-13T03:28:33.721Z,2.75
2017-12-13T03:31:00.421Z,2.89
2017-12-13T03:33:27.068Z,2.98
2017-12-13T03:35:53.729Z,3.07
2017-12-13T03:38:20.394Z,3.10
2017-12-13T03:40:47.034Z,3.13
2017-12-13T03:43:13.744Z,3.06
2017-12-13T03:45:40.434Z,2.89
2017-12-13T03:48:07.075Z,2.99
2017-12-13T03:50:33.743Z,3.00
2017-12-13T03:53:00.398Z,3.01
2017-12-13T03:55:27.081Z,3.12
2017-12-13T03:57:53.741Z,3.22
2017-12-13T04:00:20.427Z,3.22
2017-12-13T04:02:47.107Z,3.19
2017-12-13T04:05:13.866Z,3.03
2017-12-13T04:07:40.529Z,3.11
2017-12-13T04:10:07.941Z,3.13
2017-12-13T04:12:34.605Z,3.18
2017-12-13T04:15:01.288Z,3.24
2017-12-13T04:17:28.702Z,3.26
2017-12-13T04:19:55.329Z,3.08
2017-12-13T04:22:22.011Z,3.10
2017-12-13T04:24:48.637Z,3.19
2017-12-13T04:27:15.301Z,3.28
2017-12-13T04:29:42.696Z,3.35
2017-12-13T04:32:09.330Z,3.40
2017-12-13T04:34:35.994Z,3.37
2017-12-13T04:37:02.662Z,3.28
2017-12-13T04:39:29.316Z,3.30
2017-12-13T04:41:55.988Z,3.11
2017-12-13T04:44:23.415Z,3.27
2017-12-13T04:46:50.103Z,3.33
2017-12-13T04:49:16.762Z,3.20
2017-12-13T04:51:43.429Z,3.31
2017-12-13T04:54:10.081Z,3.33
2017-12-13T04:56:36.727Z,3.20
2017-12-13T04:59:03.397Z,3.30
2017-12-13T05:01:30.846Z,3.18
2017-12-13T05:03:58.229Z,3.33
2017-12-13T05:06:24.897Z,3.36
2017-12-13T05:08:51.549Z,3.43
2017-12-13T05:11:19.006Z,3.45
2017-12-13T05:13:45.705Z,3.46
2017-12-13T05:16:13.125Z,3.47
2017-12-13T05:18:39.767Z,3.37
2017-12-13T05:21:06.478Z,3.47
2017-12-13T05:23:33.142Z,3.47
2017-12-13T05:25:59.826Z,3.60
2017-12-13T05:28:27.212Z,3.37
2017-12-13T05:30:53.875Z,3.26
2017-12-13T05:33:20.571Z,3.32
2017-12-13T05:35:47.970Z,3.24
2017-12-13T05:38:14.642Z,3.27
2017-12-13T05:40:41.313Z,3.11
2017-12-13T05:43:08.740Z,3.07
2017-12-13T05:45:35.616Z,3.07
2017-12-13T05:48:02.315Z,3.13
2017-12-13T05:50:28.998Z,2.94
2017-12-13T05:52:55.669Z,2.94
2017-12-13T05:55:23.038Z,2.94
2017-12-13T05:57:49.691Z,2.85
2017-12-13T06:00:16.416Z,3.04
2017-12-13T06:02:43.822Z,3.17
2017-12-13T06:05:10.474Z,3.13
2017-12-13T06:07:37.138Z,3.19
2017-12-13T06:10:03.852Z,3.24
2017-12-13T06:12:30.503Z,3.30
2017-12-13T06:14:57.192Z,3.35
2017-12-13T06:17:23.833Z,3.33
2017-12-13T06:19:50.480Z,3.51
2017-12-13T06:22:17.160Z,3.43
2017-12-13T06:24:43.850Z,3.49
2017-12-13T06:27:11.269Z,3.40
2017-12-13T06:29:37.956Z,3.41
2017-12-13T06:32:05.337Z,3.46
2017-12-13T06:34:32.031Z,3.44
2017-12-13T06:36:58.774Z,3.45
2017-12-13T06:39:25.679Z,3.50
2017-12-13T06:41:53.075Z,3.47
2017-12-13T06:44:19.766Z,3.32
2017-12-13T06:46:46.506Z,3.10
2017-12-13T06:49:13.128Z,3.32
2017-12-13T06:51:40.533Z,3.43
2017-12-13T06:54:07.189Z,3.48
2017-12-13T06:56:34.307Z,3.52
2017-12-13T06:59:00.981Z,3.59
2017-12-13T07:01:27.643Z,3.42
2017-12-13T07:03:54.334Z,3.26
2017-12-13T07:06:20.987Z,3.39
2017-12-13T07:08:47.651Z,3.46
2017-12-13T07:11:14.296Z,3.42
2017-12-13T07:13:40.973Z,3.52
2017-12-13T07:16:07.689Z,3.64
2017-12-13T07:18:34.330Z,3.75
2017-12-13T07:21:01.000Z,3.78
2017-12-13T07:23:27.759Z,3.88
2017-12-13T07:25:55.146Z,3.95
2017-12-13T07:28:21.875Z,3.83
2017-12-13T07:30:49.324Z,3.92
2017-12-13T07:33:16.737Z,3.95
2017-12-13T07:35:43.409Z,4.05
2017-12-13T07:38:10.058Z,3.87
2017-12-13T07:40:36.710Z,3.72
2017-12-13T07:43:04.116Z,3.50
2017-12-13T07:45:30.810Z,3.62
2017-12-13T07:47:58.193Z,3.60
2017-12-13T07:50:24.881Z,3.71
2017-12-13T07:52:51.522Z,3.67
2017-12-13T07:55:18.196Z,3.47
2017-12-13T07:57:45.620Z,3.62
2017-12-13T08:00:12.334Z,3.76
2017-12-13T08:02:38.976Z,3.78
2017-12-13T08:05:05.659Z,3.86
2017-12-13T08:07:32.297Z,4.04
2017-12-13T08:09:58.961Z,4.05
2017-12-13T08:12:25.620Z,4.09
2017-12-13T08:14:52.999Z,4.15
2017-12-13T08:17:19.682Z,4.03
2017-12-13T08:19:46.412Z,4.09
2017-12-13T08:22:13.085Z,4.04
2017-12-13T08:24:39.735Z,4.00
2017-12-13T08:27:06.401Z,3.96
2017-12-13T08:29:33.071Z,4.31
2017-12-13T08:31:59.754Z,4.62
2017-12-13T08:34:26.415Z,4.69
2017-12-13T08:36:53.838Z,4.62
2017-12-13T08:39:21.231Z,4.63
2017-12-13T08:41:48.650Z,4.54
2017-12-13T08:44:15.342Z,4.52
2017-12-13T08:46:42.807Z,4.67
2017-12-13T08:49:10.221Z,4.86
2017-12-13T08:51:36.941Z,5.02
2017-12-13T08:54:03.639Z,5.07
2017-12-13T08:56:31.037Z,5.29
2017-12-13T08:58:57.734Z,5.47
2017-12-13T09:01:24.406Z,5.52
2017-12-13T09:03:51.091Z,5.48
2017-12-13T09:06:17.817Z,5.41
2017-12-13T09:08:44.495Z,5.13
2017-12-13T09:11:11.174Z,5.21
2017-12-13T09:13:37.874Z,5.19
2017-12-13T09:16:04.592Z,5.22
2017-12-13T09:18:31.268Z,5.20
2017-12-13T09:20:57.942Z,5.38
2017-12-13T09:23:25.337Z,5.27
2017-12-13T09:25:52.090Z,5.39
2017-12-13T09:28:18.788Z,5.39
2017-12-13T09:30:46.207Z,5.45
2017-12-13T09:33:12.880Z,5.25
2017-12-13T09:35:40.318Z,5.13
2017-12-13T09:38:07.009Z,5.28
2017-12-13T09:40:34.577Z,5.23
2017-12-13T09:43:01.255Z,5.55
2017-12-13T09:45:28.739Z,5.67
2017-12-13T09:47:55.409Z,5.51
2017-12-13T09:50:22.057Z,5.55
2017-12-13T09:52:48.774Z,5.63
2017-12-13T09:55:15.433Z,5.55
2017-12-13T09:57:42.905Z,5.69
2017-12-13T10:00:09.667Z,5.71
2017-12-13T10:02:36.306Z,5.95
2017-12-13T10:05:03.006Z,6.02
2017-12-13T10:07:30.453Z,5.88
2017-12-13T10:09:57.152Z,6.00
2017-12-13T10:12:23.859Z,5.90
2017-12-13T10:14:50.560Z,5.52
2017-12-13T10:17:17.219Z,5.41
2017-12-13T10:19:43.906Z,5.32
2017-12-13T10:22:11.312Z,5.39
2017-12-13T10:24:37.975Z,5.28
2017-12-13T10:27:04.641Z,5.23
2017-12-13T10:29:32.072Z,5.47
2017-12-13T10:31:58.728Z,5.47
2017-12-13T10:34:25.371Z,5.75
2017-12-13T10:36:52.072Z,5.95
2017-12-13T10:39:18.731Z,6.31
2017-12-13T10:41:45.385Z,6.92
2017-12-13T10:44:12.075Z,7.53
2017-12-13T10:46:38.753Z,7.91
2017-12-13T10:49:05.455Z,8.61
2017-12-13T10:51:32.155Z,8.69
2017-12-13T10:53:58.850Z,9.11
2017-12-13T10:56:25.557Z,8.82
2017-12-13T10:58:52.331Z,8.53
2017-12-13T11:01:19.049Z,8.31
2017-12-13T11:03:46.511Z,8.41
2017-12-13T11:06:13.246Z,7.76
2017-12-13T11:08:39.899Z,7.78
2017-12-13T11:11:07.335Z,7.66
2017-12-13T11:13:34.033Z,7.60
2017-12-13T11:16:00.730Z,7.43
2017-12-13T11:18:27.479Z,7.23
2017-12-13T11:20:54.223Z,7.21
2017-12-13T11:23:20.942Z,7.20
2017-12-13T11:25:47.641Z,7.27
2017-12-13T11:28:14.424Z,6.84
2017-12-13T11:30:42.209Z,7.01
2017-12-13T11:33:08.894Z,6.98
2017-12-13T11:35:35.627Z,7.07
2017-12-13T11:38:03.045Z,7.23
2017-12-13T11:40:29.721Z,6.68
2017-12-13T11:42:57.000Z,6.90
2017-12-13T11:45:24.422Z,6.98
2017-12-13T11:47:51.345Z,6.91
2017-12-13T11:50:18.032Z,7.00
2017-12-13T11:52:44.724Z,6.77
2017-12-13T11:55:11.402Z,6.72
2017-12-13T11:57:38.099Z,6.78
2017-12-13T12:00:04.879Z,6.97
2017-12-13T12:02:31.569Z,7.08
2017-12-13T12:04:58.248Z,7.12
2017-12-13T12:07:24.937Z,7.16
2017-12-13T12:09:51.652Z,7.13
2017-12-13T12:12:18.330Z,7.20
2017-12-13T12:14:45.727Z,7.37
2017-12-13T12:17:12.442Z,7.28
2017-12-13T12:19:39.177Z,7.18
2017-12-13T12:22:06.598Z,7.27
2017-12-13T12:24:34.902Z,7.31
2017-12-13T12:27:01.586Z,7.25
2017-12-13T12:29:28.280Z,7.28
2017-12-13T12:31:54.978Z,7.40
2017-12-13T12:34:21.691Z,7.31
2017-12-13T12:36:49.095Z,7.49
2017-12-13T12:39:15.790Z,7.58
2017-12-13T12:41:43.198Z,7.29
2017-12-13T12:44:09.841Z,7.67
2017-12-13T12:46:36.549Z,7.66
2017-12-13T12:49:03.957Z,7.82
2017-12-13T12:51:30.608Z,8.06
2017-12-13T12:53:57.285Z,7.94
2017-12-13T12:56:24.689Z,7.75
2017-12-13T12:58:51.343Z,7.67
2017-12-13T13:01:18.033Z,7.74
2017-12-13T13:03:45.428Z,7.83
2017-12-13T13:06:12.089Z,7.77
2017-12-13T13:08:38.820Z,7.73
2017-12-13T13:11:06.167Z,7.26
2017-12-13T13:13:32.841Z,7.34
2017-12-13T13:15:59.557Z,7.02
2017-12-13T13:18:26.308Z,7.20
2017-12-13T13:20:53.085Z,6.82
2017-12-13T13:23:19.774Z,7.11
2017-12-13T13:25:46.477Z,6.90
2017-12-13T13:28:13.205Z,6.88
2017-12-13T13:30:39.881Z,6.72
2017-12-13T13:33:06.605Z,6.71
2017-12-13T13:35:33.345Z,6.73
2017-12-13T13:38:00.007Z,6.61
2017-12-13T13:40:26.741Z,6.42
2017-12-13T13:42:53.420Z,6.01
2017-12-13T13:45:20.137Z,5.90
2017-12-13T13:47:47.612Z,5.83
2017-12-13T13:50:15.216Z,5.66
2017-12-13T13:52:41.850Z,5.72
2017-12-13T13:55:08.515Z,5.46
2017-12-13T13:57:35.203Z,5.45
2017-12-13T14:00:02.705Z,5.19
2017-12-13T14:02:29.376Z,5.16
2017-12-13T14:04:56.050Z,5.07
2017-12-13T14:07:23.472Z,5.02
2017-12-13T14:09:50.120Z,4.88
2017-12-13T14:12:16.789Z,4.95
2017-12-13T14:14:44.172Z,4.86
2017-12-13T14:17:10.836Z,4.87
2017-12-13T14:19:37.573Z,4.69
2017-12-13T14:22:04.266Z,4.66
2017-12-13T14:24:30.962Z,4.72
2017-12-13T14:26:57.633Z,4.50
2017-12-13T14:29:24.294Z,4.51
2017-12-13T14:31:50.958Z,4.58
2017-12-13T14:34:18.384Z,4.41
2017-12-13T14:36:45.058Z,4.53
2017-12-13T14:39:12.439Z,4.55
2017-12-13T14:41:39.138Z,4.49
2017-12-13T14:44:05.849Z,4.47
2017-12-13T14:46:32.498Z,4.49
2017-12-13T14:48:59.190Z,4.44
2017-12-13T14:51:26.618Z,4.39
2017-12-13T14:53:53.282Z,4.27
2017-12-13T14:56:19.909Z,4.10
2017-12-13T14:58:46.620Z,3.92
2017-12-13T15:01:13.248Z,3.92
2017-12-13T15:03:39.922Z,3.75
2017-12-13T15:06:06.609Z,3.84
2017-12-13T15:08:34.001Z,3.64
2017-12-13T15:11:00.679Z,3.64
2017-12-13T15:13:27.350Z,3.60
2017-12-13T15:15:54.757Z,3.67
2017-12-13T15:18:21.416Z,3.60
2017-12-13T15:20:48.078Z,3.59
2017-12-13T15:23:14.793Z,3.55
2017-12-13T15:25:41.444Z,3.54
2017-12-13T15:28:08.149Z,3.64
2017-12-13T15:30:34.846Z,3.52
2017-12-13T15:33:01.540Z,3.53
2017-12-13T15:35:28.229Z,3.73
2017-12-13T15:37:54.895Z,3.77
2017-12-13T15:40:22.286Z,3.68
2017-12-13T15:42:48.952Z,3.89
2017-12-13T15:45:15.611Z,3.98
2017-12-13T15:47:42.351Z,4.06
2017-12-13T15:50:09.011Z,4.00
2017-12-13T15:52:35.758Z,4.03
2017-12-13T15:55:02.434Z,3.98
2017-12-13T15:57:29.456Z,4.07
2017-12-13T15:59:56.141Z,4.13
2017-12-13T16:02:22.794Z,4.19
2017-12-13T16:04:49.499Z,4.05
2017-12-13T16:07:16.915Z,4.06
2017-12-13T16:09:43.559Z,4.20
2017-12-13T16:12:10.223Z,4.28
2017-12-13T16:14:36.889Z,4.26
2017-12-13T16:17:04.291Z,4.12
2017-12-13T16:19:31.711Z,4.33
2017-12-13T16:21:59.124Z,4.38
2017-12-13T16:24:25.794Z,4.14
2017-12-13T16:26:52.438Z,4.29
2017-12-13T16:29:19.321Z,4.28
2017-12-13T16:31:46.006Z,4.22
2017-12-13T16:34:12.633Z,4.25
2017-12-13T16:36:39.371Z,4.14
2017-12-13T16:39:06.064Z,4.19
2017-12-13T16:41:33.468Z,4.15
2017-12-13T16:44:00.145Z,4.08
2017-12-13T16:46:26.851Z,4.06
2017-12-13T16:48:53.514Z,4.07
2017-12-13T16:51:20.220Z,4.03
2017-12-13T16:53:46.987Z,3.97
2017-12-13T16:56:13.682Z,3.89
2017-12-13T16:58:41.205Z,3.85
2017-12-13T17:01:07.909Z,3.72
2017-12-13T17:03:34.617Z,3.61
2017-12-13T17:06:01.438Z,3.33
2017-12-13T17:08:28.152Z,3.16
2017-12-13T17:10:54.901Z,3.19
2017-12-13T17:13:21.611Z,3.26
2017-12-13T17:15:49.112Z,3.35
2017-12-13T17:18:15.837Z,3.39
2017-12-13T17:20:42.547Z,3.45
2017-12-13T17:23:09.234Z,3.50
2017-12-13T17:25:35.918Z,3.54
2017-12-13T17:28:02.628Z,3.56
2017-12-13T17:30:29.281Z,3.46
2017-12-13T17:32:55.967Z,3.45
2017-12-13T17:35:22.727Z,3.47
2017-12-13T17:37:50.133Z,3.54
2017-12-13T17:40:16.838Z,3.70
2017-12-13T17:42:43.543Z,3.68
2017-12-13T17:45:10.241Z,3.63
2017-12-13T17:47:36.918Z,3.55
2017-12-13T17:50:03.630Z,3.65
2017-12-13T17:52:30.300Z,3.61
2017-12-13T17:54:57.003Z,3.35
2017-12-13T17:57:23.694Z,3.37
2017-12-13T17:59:50.388Z,3.47
2017-12-13T18:02:17.085Z,3.45
2017-12-13T18:04:43.783Z,3.58
2017-12-13T18:07:10.490Z,3.68
2017-12-13T18:09:37.213Z,3.74
2017-12-13T18:12:03.911Z,3.72
2017-12-13T18:14:30.606Z,3.71
2017-12-13T18:16:57.331Z,3.57
2017-12-13T18:19:24.020Z,3.43
2017-12-13T18:21:51.420Z,3.16
2017-12-13T18:24:18.143Z,3.03
2017-12-13T18:26:44.843Z,3.12
2017-12-13T18:29:11.614Z,3.19
2017-12-13T18:31:39.034Z,3.10
2017-12-13T18:34:05.705Z,3.01
2017-12-13T18:36:32.397Z,2.95
2017-12-13T18:38:59.129Z,2.87
2017-12-13T18:41:25.827Z,2.90
2017-12-13T18:43:52.527Z,2.80
2017-12-13T18:46:19.319Z,2.73
2017-12-13T18:48:46.017Z,2.69
2017-12-13T18:51:12.687Z,2.56
2017-12-13T18:53:39.365Z,2.56
2017-12-13T18:56:06.798Z,2.22
2017-12-13T18:58:34.387Z,2.30
2017-12-13T19:01:01.913Z,2.30
2017-12-13T19:03:28.670Z,2.29
2017-12-13T19:05:55.349Z,2.33
2017-12-13T19:08:22.774Z,2.26
2017-12-13T19:10:49.449Z,2.25
2017-12-13T19:13:16.867Z,2.33
2017-12-13T19:15:43.625Z,2.30
2017-12-13T19:18:10.338Z,2.16
2017-12-13T19:20:37.012Z,2.33
2017-12-13T19:23:03.762Z,2.50
2017-12-13T19:25:30.416Z,2.59
2017-12-13T19:27:57.852Z,2.65
2017-12-13T19:30:24.673Z,2.55
2017-12-13T19:32:51.368Z,2.40
2017-12-13T19:35:18.785Z,2.38
2017-12-13T19:37:45.442Z,2.44
2017-12-13T19:40:12.172Z,2.58
2017-12-13T19:42:38.810Z,2.55
2017-12-13T19:45:05.502Z,2.37
2017-12-13T19:47:32.880Z,2.45
2017-12-13T19:49:59.542Z,2.28
2017-12-13T19:52:26.367Z,2.19
2017-12-13T19:54:53.022Z,2.08
2017-12-13T19:57:19.674Z,1.98
2017-12-13T19:59:46.334Z,2.23
2017-12-13T20:02:13.006Z,2.12
2017-12-13T20:04:39.663Z,2.21
2017-12-13T20:07:07.076Z,2.04
2017-12-13T20:09:33.805Z,1.97
2017-12-13T20:12:00.543Z,2.01
2017-12-13T20:14:27.208Z,1.89
2017-12-13T20:16:53.918Z,1.99
2017-12-13T20:19:20.569Z,2.07
2017-12-13T20:21:47.249Z,2.05
2017-12-13T20:24:13.960Z,2.09
2017-12-13T20:26:40.633Z,1.98
2017-12-13T20:29:08.017Z,1.99
2017-12-13T20:31:35.465Z,1.97
2017-12-13T20:34:02.100Z,2.09
2017-12-13T20:36:28.753Z,2.18
2017-12-13T20:38:55.477Z,2.05
2017-12-13T20:41:22.112Z,2.14
2017-12-13T20:43:48.778Z,2.23
2017-12-13T20:46:16.610Z,2.25
2017-12-13T20:48:44.252Z,2.38
2017-12-13T20:51:10.985Z,2.42
2017-12-13T20:53:37.691Z,2.55
2017-12-13T20:56:04.390Z,2.47
2017-12-13T20:58:31.083Z,2.48
2017-12-13T21:00:57.762Z,2.57
2017-12-13T21:03:24.467Z,2.59
2017-12-13T21:05:51.118Z,2.54
2017-12-13T21:08:17.819Z,2.52
2017-12-13T21:10:44.521Z,2.53
2017-12-13T21:13:11.894Z,2.46
2017-12-13T21:15:38.590Z,2.23
2017-12-13T21:18:05.251Z,2.16
2017-12-13T21:20:31.974Z,2.14
2017-12-13T21:22:58.699Z,2.12
2017-12-13T21:25:25.427Z,2.00
2017-12-13T21:27:52.067Z,1.92
2017-12-13T21:30:18.751Z,1.98
2017-12-13T21:32:45.390Z,2.08
2017-12-13T21:35:12.032Z,2.02
2017-12-13T21:37:38.698Z,1.89
2017-12-13T21:40:05.362Z,1.80
2017-12-13T21:42:32.066Z,1.83
2017-12-13T21:44:58.769Z,1.78
2017-12-13T21:47:25.464Z,1.91
2017-12-13T21:49:52.190Z,1.99
2017-12-13T21:52:19.019Z,1.99
2017-12-13T21:54:45.697Z,2.12
2017-12-13T21:57:12.377Z,2.23
2017-12-13T21:59:39.093Z,2.06
2017-12-13T22:02:06.519Z,2.19
2017-12-13T22:04:33.225Z,2.23
2017-12-13T22:06:59.901Z,2.28
2017-12-13T22:09:26.554Z,2.19
2017-12-13T22:11:53.238Z,2.14
2017-12-13T22:14:20.662Z,2.04
2017-12-13T22:16:47.347Z,2.12
2017-12-13T22:19:14.761Z,2.16
2017-12-13T22:21:41.453Z,1.82
2017-12-13T22:24:08.946Z,2.13
2017-12-13T22:26:35.622Z,2.14
2017-12-13T22:29:02.300Z,2.03
2017-12-13T22:31:29.061Z,2.09
2017-12-13T22:33:55.863Z,2.09
2017-12-13T22:36:23.357Z,2.02
2017-12-13T22:38:50.077Z,2.05
2017-12-13T22:41:17.514Z,2.04
2017-12-13T22:43:44.235Z,1.94
2017-12-13T22:46:10.906Z,2.01
2017-12-13T22:48:37.578Z,2.15
2017-12-13T22:51:05.082Z,2.00
2017-12-13T22:53:31.758Z,1.81
2017-12-13T22:55:58.422Z,1.84
2017-12-13T22:58:25.840Z,1.64
2017-12-13T23:00:52.534Z,1.85
2017-12-13T23:03:19.985Z,2.00
2017-12-13T23:05:47.389Z,1.95
2017-12-13T23:08:14.081Z,2.09
2017-12-13T23:10:41.615Z,2.01
2017-12-13T23:13:08.271Z,2.02
2017-12-13T23:15:35.023Z,2.22
2017-12-13T23:18:01.703Z,2.29
2017-12-13T23:20:28.375Z,2.44
2017-12-13T23:22:55.048Z,2.34
2017-12-13T23:25:21.759Z,2.12
2017-12-13T23:27:48.425Z,2.19
2017-12-13T23:30:15.108Z,1.92
2017-12-13T23:32:42.485Z,1.89
2017-12-13T23:35:09.114Z,1.82
2017-12-13T23:37:36.527Z,1.63
2017-12-13T23:40:03.236Z,1.57
2017-12-13T23:42:29.894Z,1.71
2017-12-13T23:44:57.459Z,1.63
2017-12-13T23:47:24.096Z,1.87
2017-12-13T23:49:50.743Z,1.81
2017-12-13T23:52:17.389Z,1.83
2017-12-13T23:54:44.020Z,1.64
2017-12-13T23:57:10.659Z,1.77
2017-12-13T23:59:38.300Z,1.81
